Time;durP1;ratioP1;P1;durP2;ratioP2;P2;SDS_P1;SDS_P2;PMS_P1;PMS_P2;Temp;Humidity;BMP_temperature;BMP_pressure;BME280_temperature;BME280_humidity;BME280_pressure;Samples;Min_cycle;Max_cycle;Signal;HPM_P1;HPM_P2
2022/07/16 00:03:32;;;;;;;10.75;4.40;;;;;;;22.07;50.54;95337.75;5080299;28;20437;-86
2022/07/16 00:05:57;;;;;;;7.25;3.55;;;;;;;21.36;50.28;95233.09;5053313;28;20012;-86
2022/07/16 00:08:23;;;;;;;11.95;4.03;;;;;;;21.39;50.32;95241.25;5041830;28;20379;-86
2022/07/16 00:10:49;;;;;;;8.43;4.00;;;;;;;21.92;50.19;95312.22;5041346;28;20037;-86
2022/07/16 00:13:15;;;;;;;8.88;3.90;;;;;;;22.03;50.27;95337.66;5041492;28;20036;-86
2022/07/16 00:15:40;;;;;;;9.95;4.43;;;;;;;21.60;51.41;95315.88;5040710;28;20024;-86
2022/07/16 00:20:50;;;;;;;10.63;3.72;;;;;;;22.08;50.19;95336.63;5080734;28;20489;-86
2022/07/16 00:23:15;;;;;;;12.43;3.92;;;;;;;21.67;50.49;95289.88;5051326;28;20075;-86
2022/07/16 00:25:40;;;;;;;9.15;4.10;;;;;;;21.57;50.92;95276.88;5050214;28;20493;-86
2022/07/16 00:28:07;;;;;;;8.40;3.70;;;;;;;21.86;50.02;95308.19;5060497;28;20565;-86
2022/07/16 00:30:33;;;;;;;11.48;4.00;;;;;;;22.07;50.71;95352.03;5061347;28;20043;-86
2022/07/16 00:32:59;;;;;;;10.57;4.18;;;;;;;22.05;50.85;95348.13;5051856;28;20498;-86
2022/07/16 00:35:24;;;;;;;9.90;4.38;;;;;;;21.85;50.60;95325.50;5040334;28;20032;-86
2022/07/16 00:37:49;;;;;;;11.43;3.45;;;;;;;22.10;50.06;95353.25;5040337;28;20036;-86
2022/07/16 00:40:15;;;;;;;6.97;3.50;;;;;;;21.90;50.02;95317.94;5048093;28;20036;-86
2022/07/16 00:42:40;;;;;;;8.40;3.70;;;;;;;21.99;49.76;95309.75;5060636;28;20036;-86
2022/07/16 00:45:07;;;;;;;6.70;3.53;;;;;;;21.75;49.99;95277.38;5060653;28;20066;-86
2022/07/16 00:47:33;;;;;;;11.15;3.40;;;;;;;20.45;49.86;95083.53;5060460;28;20531;-86
2022/07/16 00:49:58;;;;;;;11.20;4.00;;;;;;;21.46;49.66;95229.91;5052525;28;20028;-86
2022/07/16 00:52:24;;;;;;;12.32;3.88;;;;;;;20.30;49.93;95066.91;5058840;28;20313;-85
2022/07/16 00:54:49;;;;;;;10.40;4.43;;;;;;;20.33;49.91;95066.28;5054324;28;20494;-86
2022/07/16 00:57:15;;;;;;;10.05;3.75;;;;;;;20.95;49.71;95164.78;5039486;28;20058;-86
2022/07/16 00:59:41;;;;;;;7.10;3.53;;;;;;;21.71;50.70;95319.69;5063725;28;20489;-86
2022/07/16 01:02:06;;;;;;;7.55;3.55;;;;;;;22.11;50.10;95357.53;5054788;28;20384;-86
2022/07/16 01:04:33;;;;;;;15.07;3.95;;;;;;;21.69;49.92;95284.16;5040493;28;20047;-86
2022/07/16 01:06:59;;;;;;;12.10;3.95;;;;;;;22.20;49.99;95339.28;5040187;28;20032;-86
2022/07/16 01:09:26;;;;;;;7.05;3.40;;;;;;;21.81;50.25;95295.72;5044558;28;20531;-86
2022/07/16 01:11:53;;;;;;;11.10;3.90;;;;;;;22.24;50.33;95356.38;5056150;28;20031;-86
2022/07/16 01:14:19;;;;;;;12.50;3.85;;;;;;;22.16;50.61;95354.59;5045084;28;20106;-86
2022/07/16 01:16:45;;;;;;;9.90;4.45;;;;;;;22.24;50.10;95349.06;5060223;28;20526;-86
2022/07/16 01:19:12;;;;;;;9.82;3.50;;;;;;;21.99;50.64;95338.66;5054590;28;20406;-86
2022/07/16 01:21:38;;;;;;;9.48;4.22;;;;;;;21.46;50.80;95246.88;5040189;28;20044;-86
2022/07/16 01:24:03;;;;;;;7.53;3.10;;;;;;;21.58;51.24;95323.53;5039854;28;20042;-86
2022/07/16 01:26:29;;;;;;;7.00;3.00;;;;;;;20.96;50.90;95206.00;5041169;28;20029;-87
2022/07/16 01:28:54;;;;;;;11.50;4.05;;;;;;;21.86;51.15;95343.28;5049098;28;20869;-86
2022/07/16 01:31:20;;;;;;;11.73;3.78;;;;;;;22.03;50.99;95361.16;5064438;28;20068;-86
2022/07/16 01:34:24;;;;;;;9.63;3.80;;;;;;;21.97;50.65;95357.13;5083039;28;20108;-85
2022/07/16 01:36:31;;;;;;;6.63;3.88;;;;;;;21.40;51.04;95290.59;5082744;28;20546;-86
2022/07/16 01:38:56;;;;;;;11.45;3.80;;;;;;;20.65;51.74;95214.66;5064797;28;20151;-85
2022/07/16 01:41:21;;;;;;;7.18;3.53;;;;;;;21.01;51.61;95257.78;5065165;28;20040;-85
2022/07/16 01:43:47;;;;;;;7.90;3.95;;;;;;;21.36;51.88;95322.09;5080087;28;20120;-85
2022/07/16 01:46:12;;;;;;;6.40;3.70;;;;;;;21.37;51.75;95304.75;5057166;28;20074;-86
2022/07/16 01:48:38;;;;;;;7.10;3.88;;;;;;;19.79;52.14;95108.69;5088192;28;20031;-86
2022/07/16 01:51:03;;;;;;;12.07;3.63;;;;;;;19.50;51.73;95036.22;5069850;28;20036;-85
2022/07/16 01:53:29;;;;;;;9.50;4.00;;;;;;;21.68;52.00;95369.72;5087379;28;20040;-86
2022/07/16 01:55:55;;;;;;;6.50;3.50;;;;;;;21.36;51.82;95320.16;5069920;28;20052;-86
2022/07/16 01:58:21;;;;;;;13.85;4.78;;;;;;;20.55;51.61;95183.53;5067905;28;20060;-85
2022/07/16 02:00:46;;;;;;;9.20;3.60;;;;;;;21.67;51.76;95378.16;5060159;28;20062;-86
2022/07/16 02:03:13;;;;;;;15.02;3.88;;;;;;;20.86;51.59;95254.97;5073412;28;20028;-86
2022/07/16 02:05:40;;;;;;;6.45;3.17;;;;;;;20.66;51.35;95311.34;5065403;28;20082;-86
2022/07/16 02:08:05;;;;;;;5.57;3.03;;;;;;;19.80;51.09;95182.13;5054228;28;20052;-87
2022/07/16 02:10:31;;;;;;;8.68;2.85;;;;;;;20.59;50.85;95337.25;5064122;28;20601;-85
2022/07/16 02:12:57;;;;;;;7.47;2.80;;;;;;;20.76;51.15;95382.88;5054599;28;20028;-86
2022/07/16 02:15:23;;;;;;;5.50;2.65;;;;;;;20.20;50.16;95271.22;5088686;28;20113;-86
2022/07/16 02:17:48;;;;;;;5.70;2.85;;;;;;;20.60;49.62;95318.03;5069639;28;20027;-86
2022/07/16 02:20:14;;;;;;;7.93;2.47;;;;;;;19.67;49.20;95146.34;5069194;28;20572;-86
2022/07/16 02:22:39;;;;;;;5.22;2.40;;;;;;;20.51;48.66;95276.16;5065479;28;20036;-86
2022/07/16 02:25:07;;;;;;;6.18;2.85;;;;;;;21.17;49.18;95393.56;5049583;28;20055;-86
2022/07/16 02:27:33;;;;;;;8.65;2.60;;;;;;;21.37;48.68;95397.28;5064048;28;20082;-86
2022/07/16 02:29:59;;;;;;;8.77;2.67;;;;;;;20.99;49.04;95340.91;5048663;28;20032;-86
2022/07/16 02:32:25;;;;;;;11.13;2.90;;;;;;;21.45;48.87;95399.09;5068151;28;20473;-86
2022/07/16 02:34:51;;;;;;;8.25;2.88;;;;;;;21.43;48.65;95395.16;5050165;28;20016;-86
2022/07/16 02:37:17;;;;;;;3.03;2.42;;;;;;;20.97;49.33;95337.00;5065643;28;20082;-86
2022/07/16 02:39:42;;;;;;;4.53;2.30;;;;;;;20.98;48.72;95363.59;5068136;28;20845;-86
2022/07/16 02:42:08;;;;;;;4.72;2.90;;;;;;;20.86;49.22;95322.38;5065473;28;20062;-86
2022/07/16 02:44:33;;;;;;;4.70;2.50;;;;;;;21.39;49.55;95396.94;5049011;28;20041;-85
2022/07/16 02:46:59;;;;;;;7.97;2.85;;;;;;;21.07;49.73;95356.19;5048781;28;20559;-85
2022/07/16 02:49:25;;;;;;;5.65;2.85;;;;;;;20.71;49.68;95286.06;5065315;28;20190;-86
2022/07/16 02:51:50;;;;;;;6.75;2.80;;;;;;;21.39;49.95;95399.66;5063050;28;20065;-86
2022/07/16 02:54:15;;;;;;;8.40;3.15;;;;;;;20.52;50.46;95283.88;5044539;28;20036;-86
2022/07/16 02:56:41;;;;;;;8.23;3.40;;;;;;;20.57;50.39;95281.00;5044920;28;20097;-85
2022/07/16 02:59:06;;;;;;;8.55;3.55;;;;;;;21.27;50.87;95395.03;5064712;28;20040;-86
2022/07/16 03:01:32;;;;;;;8.45;2.53;;;;;;;21.06;50.99;95391.59;5079157;28;20537;-86
2022/07/16 03:03:57;;;;;;;9.90;3.58;;;;;;;20.23;50.66;95267.84;5063185;28;20131;-84
2022/07/16 03:06:23;;;;;;;9.65;3.80;;;;;;;20.88;51.13;95360.56;5045103;28;20048;-86
2022/07/16 03:08:48;;;;;;;11.07;3.72;;;;;;;20.94;50.96;95388.88;5044741;28;20151;-85
2022/07/16 03:11:15;;;;;;;8.13;3.95;;;;;;;21.09;51.54;95394.41;5063100;28;20113;-85
2022/07/16 03:13:41;;;;;;;9.60;3.75;;;;;;;20.72;51.60;95336.94;5080797;28;20079;-85
2022/07/16 03:16:06;;;;;;;10.93;3.95;;;;;;;20.63;51.36;95328.16;5042393;28;20143;-86
2022/07/16 03:18:32;;;;;;;9.90;3.70;;;;;;;20.33;51.69;95300.56;5042044;28;20131;-85
2022/07/16 03:20:57;;;;;;;14.13;3.88;;;;;;;20.27;51.53;95301.88;5061712;28;20047;-86
2022/07/16 03:23:23;;;;;;;11.43;4.07;;;;;;;21.04;51.85;95413.50;5062412;28;20044;-86
2022/07/16 03:25:48;;;;;;;9.07;3.65;;;;;;;19.99;51.94;95250.50;5062732;28;20040;-86
2022/07/16 03:28:14;;;;;;;11.32;3.40;;;;;;;20.46;52.11;95343.69;5081213;28;20039;-85
2022/07/16 03:30:39;;;;;;;7.07;3.45;;;;;;;19.73;52.44;95233.00;5062397;28;20047;-85
2022/07/16 03:33:05;;;;;;;10.10;3.80;;;;;;;20.78;52.04;95386.03;5062774;28;20046;-85
2022/07/16 03:35:30;;;;;;;12.02;4.22;;;;;;;20.01;52.36;95279.78;5061086;28;20119;-86
2022/07/16 03:40:40;;;;;;;15.68;3.78;;;;;;;20.66;52.60;95394.88;5079031;28;20104;-85
2022/07/16 03:43:05;;;;;;;15.38;3.85;;;;;;;20.52;52.51;95374.72;5042287;28;20036;-86
2022/07/16 03:45:31;;;;;;;7.10;3.58;;;;;;;20.60;53.12;95408.84;5060608;28;20091;-86
2022/07/16 03:47:57;;;;;;;9.55;3.28;;;;;;;20.53;52.93;95401.31;5042359;28;20585;-85
2022/07/16 03:50:23;;;;;;;10.02;3.83;;;;;;;20.36;53.24;95375.34;5041394;28;20935;-86
2022/07/16 03:52:51;;;;;;;11.25;4.03;;;;;;;19.51;53.08;95236.84;5041244;28;20039;-85
2022/07/16 03:55:17;;;;;;;9.40;4.05;;;;;;;20.58;53.04;95397.66;5041100;28;20032;-86
2022/07/16 03:57:43;;;;;;;6.07;3.47;;;;;;;20.86;52.87;95436.38;5041434;28;20389;-85
2022/07/16 04:00:10;;;;;;;7.90;3.67;;;;;;;19.58;53.16;95234.41;5041561;28;20039;-85
2022/07/16 04:02:36;;;;;;;9.68;4.13;;;;;;;20.83;52.37;95418.16;5041500;28;20418;-86
2022/07/16 04:05:03;;;;;;;6.05;4.10;;;;;;;20.26;52.76;95339.91;5059354;28;20147;-86
2022/07/16 04:07:29;;;;;;;9.57;3.72;;;;;;;18.74;51.87;95091.09;5043545;28;20040;-86
2022/07/16 04:09:54;;;;;;;7.22;3.47;;;;;;;20.83;50.98;95391.19;5041411;28;20017;-86
2022/07/16 04:12:23;;;;;;;10.50;3.38;;;;;;;20.88;50.92;95390.22;5058194;28;20032;-86
2022/07/16 04:14:51;;;;;;;5.03;3.15;;;;;;;21.00;50.74;95409.09;5060798;28;20122;-85
2022/07/16 04:17:16;;;;;;;9.65;4.45;;;;;;;20.24;50.77;95290.97;5060484;28;20931;-85
2022/07/16 04:19:42;;;;;;;6.90;3.03;;;;;;;19.68;50.46;95233.22;5063444;28;20033;-86
2022/07/16 04:22:07;;;;;;;5.40;3.78;;;;;;;20.24;50.26;95289.06;5041729;28;20589;-85
2022/07/16 04:24:33;;;;;;;4.82;3.13;;;;;;;20.62;50.32;95350.84;5057255;28;20044;-86
2022/07/16 04:26:58;;;;;;;7.20;3.10;;;;;;;20.50;50.17;95310.41;5062571;28;20211;-86
2022/07/16 04:29:23;;;;;;;10.88;3.60;;;;;;;19.23;49.95;95120.91;5059054;28;20045;-86
2022/07/16 04:31:49;;;;;;;8.63;3.83;;;;;;;21.07;49.25;95396.66;5055819;28;20039;-87
2022/07/16 04:34:14;;;;;;;12.73;3.70;;;;;;;21.04;48.69;95374.97;5060659;28;20486;-86
2022/07/16 04:36:40;;;;;;;8.65;3.85;;;;;;;20.67;48.69;95355.25;5079676;28;20046;-86
2022/07/16 04:39:05;;;;;;;10.55;4.28;;;;;;;21.27;48.81;95410.44;5079045;28;20488;-86
2022/07/16 04:41:31;;;;;;;7.95;3.33;;;;;;;21.40;48.55;95437.09;5060983;28;20107;-86
2022/07/16 04:43:56;;;;;;;7.38;3.20;;;;;;;21.18;47.90;95386.25;5060894;28;20136;-86
2022/07/16 04:46:22;;;;;;;10.10;3.92;;;;;;;21.34;48.33;95406.06;5046877;28;20093;-86
2022/07/16 04:48:47;;;;;;;8.95;3.10;;;;;;;21.04;48.43;95354.19;5039915;28;20040;-86
2022/07/16 04:51:12;;;;;;;16.65;4.15;;;;;;;21.51;48.89;95422.00;5053143;28;20040;-86
2022/07/16 04:53:38;;;;;;;11.23;3.63;;;;;;;21.60;48.74;95418.41;5060652;28;20035;-86
2022/07/16 04:56:04;;;;;;;6.47;3.47;;;;;;;21.20;49.01;95358.97;5047648;28;20042;-86
2022/07/16 04:58:29;;;;;;;6.45;3.47;;;;;;;20.90;49.45;95315.19;5058889;28;20070;-86
2022/07/16 05:00:55;;;;;;;8.25;3.20;;;;;;;21.29;49.05;95386.59;5061715;28;20887;-86
2022/07/16 05:03:22;;;;;;;6.50;3.42;;;;;;;21.66;49.44;95434.06;5053866;28;20051;-86
2022/07/16 05:05:49;;;;;;;7.22;3.13;;;;;;;21.46;49.12;95387.16;5063242;28;20040;-86
2022/07/16 05:08:14;;;;;;;8.15;3.40;;;;;;;21.72;48.98;95448.13;5044351;28;20070;-86
2022/07/16 05:10:40;;;;;;;7.07;3.20;;;;;;;21.57;49.08;95428.00;5044733;28;20036;-86
2022/07/16 05:13:06;;;;;;;11.82;4.15;;;;;;;21.47;48.69;95396.06;5044834;28;20032;-86
2022/07/16 05:15:32;;;;;;;14.35;3.50;;;;;;;21.52;48.57;95396.59;5044443;28;20032;-86
2022/07/16 05:18:00;;;;;;;10.43;3.55;;;;;;;22.00;48.52;95454.44;5054202;28;20024;-87
2022/07/16 05:20:26;;;;;;;15.60;4.10;;;;;;;21.10;48.03;95301.63;5064786;28;20040;-87
2022/07/16 05:22:52;;;;;;;8.65;3.88;;;;;;;21.67;48.14;95391.66;5053804;28;20525;-87
2022/07/16 05:25:17;;;;;;;8.07;3.67;;;;;;;21.59;47.92;95401.44;5043687;28;20051;-86
2022/07/16 05:27:43;;;;;;;9.57;3.45;;;;;;;21.77;48.32;95445.19;5044670;28;20045;-87
2022/07/16 05:30:09;;;;;;;9.80;4.25;;;;;;;21.70;48.12;95426.06;5045036;28;20036;-87
2022/07/16 05:32:36;;;;;;;11.82;3.97;;;;;;;21.99;48.24;95446.66;5044823;28;20036;-87
2022/07/16 05:35:02;;;;;;;11.30;4.78;;;;;;;22.10;48.06;95454.00;5054731;28;20271;-87
2022/07/16 05:37:27;;;;;;;5.30;3.53;;;;;;;21.65;48.15;95375.03;5082910;28;20579;-87
2022/07/16 05:39:53;;;;;;;8.43;3.85;;;;;;;21.85;47.81;95395.69;5060075;28;20491;-87
2022/07/16 05:42:18;;;;;;;9.32;3.65;;;;;;;22.00;47.54;95408.53;5061417;28;20082;-86
2022/07/16 05:44:44;;;;;;;9.10;3.65;;;;;;;21.69;47.35;95352.41;5060852;28;20411;-87
2022/07/16 05:47:09;;;;;;;15.48;4.15;;;;;;;21.87;47.24;95375.34;5061196;28;20052;-87
2022/07/16 05:49:34;;;;;;;8.80;4.03;;;;;;;22.38;46.96;95442.44;5061277;28;20036;-87
2022/07/16 05:52:00;;;;;;;6.78;3.55;;;;;;;22.55;47.45;95463.81;5061120;28;20032;-87
2022/07/16 05:54:25;;;;;;;9.95;4.00;;;;;;;22.00;47.34;95384.22;5062878;28;20533;-87
2022/07/16 05:56:51;;;;;;;6.85;4.10;;;;;;;22.24;47.20;95407.69;5060122;28;20040;-86
2022/07/16 05:59:16;;;;;;;7.72;3.78;;;;;;;22.62;47.46;95469.41;5060722;28;20040;-86
2022/07/16 06:01:42;;;;;;;16.05;4.10;;;;;;;20.11;47.13;95055.91;5061676;28;20045;-86
2022/07/16 06:04:07;;;;;;;10.52;4.18;;;;;;;22.48;46.99;95420.34;5061266;28;20492;-87
2022/07/16 06:06:33;;;;;;;13.13;3.90;;;;;;;22.46;46.91;95434.19;5062677;28;20044;-87
2022/07/16 06:08:58;;;;;;;9.70;3.85;;;;;;;21.92;47.27;95323.00;5060822;28;20062;-85
2022/07/16 06:11:24;;;;;;;11.00;4.47;;;;;;;22.12;47.11;95389.63;5061243;28;20036;-86
2022/07/16 06:13:49;;;;;;;12.25;4.70;;;;;;;22.27;47.27;95413.22;5060708;28;20453;-86
2022/07/16 06:16:15;;;;;;;10.98;4.05;;;;;;;20.79;47.09;95172.00;5060789;28;20024;-86
2022/07/16 06:18:41;;;;;;;11.57;5.05;;;;;;;22.00;47.17;95356.44;5061917;28;20040;-87
2022/07/16 06:21:07;;;;;;;8.82;3.97;;;;;;;20.55;46.79;95110.81;5061607;28;20091;-86
2022/07/16 06:23:32;;;;;;;15.23;5.00;;;;;;;22.44;47.09;95400.53;5061382;28;20147;-86
2022/07/16 06:25:58;;;;;;;6.43;4.10;;;;;;;22.14;46.69;95336.03;5060892;28;20031;-86
2022/07/16 06:28:23;;;;;;;9.63;3.92;;;;;;;22.25;46.92;95329.03;5060818;28;20152;-86
2022/07/16 06:30:49;;;;;;;12.35;4.40;;;;;;;22.77;47.17;95409.22;5060019;28;20231;-88
2022/07/16 06:33:15;;;;;;;10.05;4.55;;;;;;;23.15;46.81;95451.19;5061187;28;20071;-85
2022/07/16 06:35:40;;;;;;;18.50;4.68;;;;;;;22.95;46.28;95426.72;5061862;28;20450;-87
2022/07/16 06:38:05;;;;;;;13.30;4.80;;;;;;;22.59;46.56;95368.16;5061030;28;20033;-86
2022/07/16 06:40:32;;;;;;;11.70;4.90;;;;;;;23.09;46.70;95446.03;5060255;28;20032;-86
2022/07/16 06:42:57;;;;;;;13.10;4.18;;;;;;;21.33;46.72;95172.50;5061635;28;20037;-87
2022/07/16 06:45:23;;;;;;;7.68;4.22;;;;;;;23.08;46.54;95433.63;5061981;28;20149;-87
2022/07/16 06:47:48;;;;;;;9.23;4.45;;;;;;;23.02;46.32;95418.81;5060581;28;20028;-85
2022/07/16 06:50:14;;;;;;;13.93;4.55;;;;;;;21.57;46.89;95193.22;5059750;28;20036;-86
2022/07/16 06:52:40;;;;;;;10.13;4.22;;;;;;;22.95;46.88;95434.06;5061504;28;20043;-86
2022/07/16 06:55:07;;;;;;;10.13;4.63;;;;;;;23.09;47.26;95443.34;5060578;28;20025;-86
2022/07/16 06:57:33;;;;;;;9.30;3.97;;;;;;;21.65;47.32;95213.09;5060277;28;20225;-87
2022/07/16 06:59:59;;;;;;;19.75;4.40;;;;;;;23.28;47.47;95455.38;5061096;28;20625;-86
2022/07/16 07:02:24;;;;;;;13.43;4.93;;;;;;;21.49;47.44;95178.75;5061657;28;20111;-87
2022/07/16 07:04:50;;;;;;;10.02;4.28;;;;;;;22.80;47.20;95349.06;5059907;28;20525;-86
2022/07/16 07:07:15;;;;;;;8.77;4.15;;;;;;;22.99;47.46;95375.41;5060366;28;20117;-86
2022/07/16 07:09:41;;;;;;;10.98;4.25;;;;;;;23.22;48.07;95424.31;5061961;28;20111;-85
2022/07/16 07:12:06;;;;;;;8.82;4.03;;;;;;;23.23;48.12;95437.50;5061803;28;20028;-85
2022/07/16 07:14:31;;;;;;;14.65;4.22;;;;;;;23.24;48.47;95422.84;5059596;28;20547;-85
2022/07/16 07:16:57;;;;;;;8.20;3.47;;;;;;;22.68;47.66;95346.38;5059284;28;20033;-83
2022/07/16 07:19:22;;;;;;;10.85;3.95;;;;;;;22.56;48.57;95320.22;5060969;28;20042;-85
2022/07/16 07:21:48;;;;;;;14.23;4.43;;;;;;;23.23;48.32;95423.19;5060501;28;20149;-86
2022/07/16 07:24:13;;;;;;;16.02;4.10;;;;;;;23.26;47.91;95417.88;5058164;28;20079;-87
2022/07/16 07:26:39;;;;;;;11.60;4.20;;;;;;;23.59;48.14;95438.41;5059991;28;20051;-85
2022/07/16 07:29:04;;;;;;;8.95;3.72;;;;;;;22.76;47.82;95302.22;5059598;28;20477;-86
2022/07/16 07:31:29;;;;;;;11.40;5.30;;;;;;;23.60;47.50;95421.81;5059621;28;20588;-86
2022/07/16 07:33:55;;;;;;;8.73;3.80;;;;;;;23.35;47.68;95390.63;5059066;28;20044;-86
2022/07/16 07:36:21;;;;;;;10.30;4.10;;;;;;;23.31;47.56;95378.94;5059379;28;20029;-86
2022/07/16 07:38:46;;;;;;;7.88;3.67;;;;;;;23.10;46.85;95319.69;5059508;28;20059;-87
2022/07/16 07:41:12;;;;;;;7.97;4.50;;;;;;;23.48;47.34;95356.97;5060953;28;20036;-87
2022/07/16 07:43:37;;;;;;;9.35;3.58;;;;;;;24.06;46.64;95436.44;5058911;28;20086;-85
2022/07/16 07:46:03;;;;;;;8.90;4.35;;;;;;;24.14;45.99;95453.66;5058724;28;20160;-85
2022/07/16 07:48:28;;;;;;;9.50;3.78;;;;;;;23.92;46.30;95435.34;5058971;28;20435;-86
2022/07/16 07:50:54;;;;;;;8.02;3.47;;;;;;;23.99;45.74;95406.47;5059704;28;20114;-85
2022/07/16 07:53:19;;;;;;;9.52;3.47;;;;;;;23.72;45.92;95362.19;5058732;28;20036;-84
2022/07/16 07:55:45;;;;;;;16.00;4.32;;;;;;;23.91;47.02;95409.38;5059669;28;20036;-86
2022/07/16 07:58:10;;;;;;;14.60;4.28;;;;;;;24.35;45.96;95429.75;5059376;28;20044;-86
2022/07/16 08:00:36;;;;;;;11.90;3.80;;;;;;;24.16;45.92;95414.22;5057933;28;20052;-86
2022/07/16 08:03:02;;;;;;;17.42;3.60;;;;;;;23.86;45.95;95345.44;5060466;28;20044;-85
2022/07/16 08:05:27;;;;;;;14.73;3.55;;;;;;;24.02;45.92;95384.13;5058657;28;20103;-86
2022/07/16 08:07:53;;;;;;;10.75;3.65;;;;;;;24.57;46.35;95456.16;5059375;28;20036;-87
2022/07/16 08:10:18;;;;;;;10.25;3.15;;;;;;;24.36;45.47;95393.38;5057877;28;20040;-87
2022/07/16 08:12:44;;;;;;;9.27;3.88;;;;;;;24.86;46.46;95443.97;5058763;28;20036;-85
2022/07/16 08:15:10;;;;;;;12.02;3.72;;;;;;;24.88;45.52;95435.47;5060326;28;20418;-86
2022/07/16 08:17:36;;;;;;;11.30;3.63;;;;;;;24.80;45.60;95409.34;5058637;28;20037;-86
2022/07/16 08:20:03;;;;;;;10.45;3.40;;;;;;;23.98;44.52;95274.88;5060688;28;20054;-84
2022/07/16 08:22:29;;;;;;;14.73;2.95;;;;;;;25.02;43.47;95443.94;5058601;28;20037;-85
2022/07/16 08:27:41;;;;;;;11.63;3.72;;;;;;;24.78;44.04;95376.41;5060291;28;20063;-86
2022/07/16 08:30:07;;;;;;;13.48;3.38;;;;;;;24.90;43.56;95385.16;5057557;28;20040;-87
2022/07/16 08:32:33;;;;;;;12.30;3.45;;;;;;;25.44;43.42;95424.91;5058404;28;20035;-87
2022/07/16 08:34:58;;;;;;;7.53;3.40;;;;;;;25.45;43.61;95426.47;5059782;28;20040;-86
2022/07/16 08:37:36;;;;;;;6.45;3.25;;;;;;;25.43;42.31;95414.41;5057577;28;20090;-86
2022/07/16 08:40:08;;;;;;;11.02;3.83;;;;;;;25.20;41.78;95373.69;5057992;28;20033;-87
2022/07/16 08:42:35;;;;;;;17.58;3.53;;;;;;;25.21;42.33;95358.97;5059551;28;20073;-87
2022/07/16 08:45:03;;;;;;;10.57;3.20;;;;;;;25.59;41.69;95413.16;5057916;28;20067;-87
2022/07/16 08:47:31;;;;;;;10.90;3.47;;;;;;;24.70;41.85;95299.53;5058816;28;20048;-86
2022/07/16 08:49:58;;;;;;;12.68;3.58;;;;;;;23.65;41.60;95115.63;5058968;28;20048;-84
2022/07/16 08:52:26;;;;;;;10.23;3.20;;;;;;;25.81;41.90;95424.34;5058529;28;20044;-85
2022/07/16 08:54:54;;;;;;;13.90;3.63;;;;;;;24.25;42.05;95161.25;5058654;28;20032;-87
2022/07/16 08:57:20;;;;;;;8.60;3.45;;;;;;;25.95;41.15;95414.47;5057928;28;20035;-84
2022/07/16 08:59:45;;;;;;;12.70;3.30;;;;;;;25.66;40.90;95369.03;5058488;28;20044;-86
2022/07/16 09:02:14;;;;;;;10.88;3.70;;;;;;;25.26;41.34;95305.16;5058951;28;20040;-84
2022/07/16 09:04:42;;;;;;;10.30;3.47;;;;;;;26.26;41.73;95437.88;5058277;28;20055;-86
2022/07/16 09:07:11;;;;;;;7.85;2.90;;;;;;;26.43;41.23;95437.34;5060729;28;20024;-85
2022/07/16 09:09:37;;;;;;;8.65;3.15;;;;;;;26.13;40.34;95409.31;5061413;28;20040;-85
2022/07/16 09:12:03;;;;;;;8.48;3.10;;;;;;;25.91;39.72;95381.06;5059606;28;20096;-84
2022/07/16 09:14:28;;;;;;;7.10;3.00;;;;;;;26.50;39.41;95439.38;5057807;28;20020;-86
2022/07/16 09:16:54;;;;;;;8.43;3.25;;;;;;;26.18;39.86;95378.31;5058635;28;20504;-87
2022/07/16 09:19:19;;;;;;;10.23;3.67;;;;;;;26.76;40.48;95435.81;5059309;28;20066;-86
2022/07/16 09:22:11;;;;;;;7.18;3.40;;;;;;;26.84;40.02;95435.53;5057835;28;20131;-85
2022/07/16 09:24:42;;;;;;;8.18;3.05;;;;;;;26.79;39.30;95430.41;5057570;28;20044;-85
2022/07/16 09:27:12;;;;;;;;;;;;;;;26.87;39.70;95428.53;5058391;28;20475;-86
2022/07/16 09:29:47;;;;;;;11.15;3.00;;;;;;;25.25;39.18;95169.84;5059425;28;19920;-85
2022/07/16 09:32:28;;;;;;;10.27;3.13;;;;;;;25.51;38.67;95193.44;5057960;28;20481;-85
2022/07/16 09:35:13;;;;;;;15.02;3.20;;;;;;;26.71;38.10;95384.44;5058788;28;20040;-86
2022/07/16 09:37:59;;;;;;;8.15;3.28;;;;;;;26.73;38.08;95374.75;5057839;28;20502;-85
2022/07/16 09:40:35;;;;;;;8.30;2.85;;;;;;;27.10;38.47;95421.06;5057955;28;20105;-87
2022/07/16 09:43:02;;;;;;;11.38;3.45;;;;;;;26.71;39.48;95328.09;5059163;28;20077;-85
2022/07/16 09:45:28;;;;;;;15.18;3.13;;;;;;;27.33;38.25;95407.28;5057119;28;20098;-84
2022/07/16 09:47:54;;;;;;;11.25;3.35;;;;;;;27.29;37.97;95409.19;5059985;28;20123;-85
2022/07/16 09:50:19;;;;;;;7.25;3.10;;;;;;;26.97;37.32;95326.44;5062280;28;20037;-86
2022/07/16 09:52:45;;;;;;;6.72;2.67;;;;;;;27.84;36.53;95393.75;5062947;28;20047;-85
2022/07/16 09:55:10;;;;;;;4.07;2.42;;;;;;;28.77;34.88;95412.22;5062771;28;20153;-85
2022/07/16 09:57:36;;;;;;;7.60;2.80;;;;;;;29.62;33.62;95391.72;5061318;28;20036;-86
2022/07/16 10:00:07;;;;;;;8.00;2.22;;;;;;;29.48;32.39;95210.22;5063427;28;20031;-86
2022/07/16 10:02:33;;;;;;;12.25;2.63;;;;;;;31.54;30.76;95391.88;5064003;28;20028;-87
2022/07/16 10:04:59;;;;;;;12.10;3.20;;;;;;;31.36;30.09;95345.41;5060753;28;20043;-84
2022/07/16 10:07:25;;;;;;;15.45;2.83;;;;;;;31.83;28.91;95336.44;5060544;28;20612;-84
2022/07/16 10:09:50;;;;;;;6.25;2.50;;;;;;;32.46;28.99;95367.16;5061161;28;20037;-86
2022/07/16 10:12:18;;;;;;;5.45;2.70;;;;;;;32.73;28.38;95371.97;5060935;28;20062;-86
2022/07/16 10:14:49;;;;;;;7.85;2.63;;;;;;;32.66;27.81;95312.38;5061610;28;20032;-84
2022/07/16 10:17:19;;;;;;;;;;;;;;;33.71;26.41;95396.50;5061474;28;20323;-85
2022/07/16 10:19:45;;;;;;;6.70;2.50;;;;;;;33.63;25.43;95305.09;5061003;28;20418;-86
2022/07/16 10:22:18;;;;;;;6.75;2.42;;;;;;;35.02;24.70;95387.84;5060877;28;20479;-87
2022/07/16 10:24:53;;;;;;;4.22;2.45;;;;;;;34.76;24.41;95343.50;5063050;28;20585;-85
2022/07/16 10:27:24;;;;;;;6.55;2.30;;;;;;;35.19;23.54;95392.19;5062276;28;20487;-85
2022/07/16 10:29:50;;;;;;;7.90;2.13;;;;;;;34.97;23.23;95322.97;5061885;28;20447;-85
2022/07/16 10:32:27;;;;;;;10.13;2.50;;;;;;;35.42;23.12;95339.69;5059879;28;20037;-85
2022/07/16 10:34:54;;;;;;;7.60;2.28;;;;;;;35.70;22.15;95376.84;5060980;28;20452;-84
2022/07/16 10:37:30;;;;;;;5.65;2.20;;;;;;;36.14;21.98;95382.88;5061363;28;20062;-84
2022/07/16 10:40:06;;;;;;;6.32;2.40;;;;;;;35.70;23.11;95329.97;5059807;28;20040;-86
2022/07/16 10:42:33;;;;;;;5.32;2.13;;;;;;;35.55;22.98;95370.13;5060285;28;20028;-84
2022/07/16 10:44:59;;;;;;;4.50;2.35;;;;;;;35.73;22.83;95312.56;5062207;28;20048;-85
2022/07/16 10:47:45;;;;;;;4.70;1.80;;;;;;;36.10;22.60;95307.63;5060249;28;20051;-86
2022/07/16 10:50:23;;;;;;;6.15;2.42;;;;;;;36.03;22.44;95357.50;5061596;28;20092;-82
2022/07/16 10:52:51;;;;;;;5.28;2.05;;;;;;;35.63;22.46;95368.72;5060917;28;20036;-85
2022/07/16 10:55:30;;;;;;;3.72;1.90;;;;;;;35.36;23.63;95376.47;5060675;28;20035;-84
2022/07/16 10:57:56;;;;;;;4.43;2.00;;;;;;;35.18;23.61;95314.22;5061837;28;20113;-87
2022/07/16 11:00:22;;;;;;;4.57;1.80;;;;;;;35.45;24.03;95300.22;5059073;28;20039;-86
2022/07/16 11:02:47;;;;;;;6.20;2.08;;;;;;;34.89;22.52;95227.13;5061742;28;20393;-85
2022/07/16 11:05:13;;;;;;;4.10;2.10;;;;;;;35.72;22.32;95312.97;5062089;28;20434;-86
2022/07/16 11:07:38;;;;;;;7.75;2.05;;;;;;;35.09;23.08;95341.63;5060256;28;20558;-85
2022/07/16 11:10:04;;;;;;;11.43;2.30;;;;;;;35.53;23.08;95376.06;5061335;28;20040;-86
2022/07/16 11:12:32;;;;;;;3.42;2.00;;;;;;;34.93;23.69;95283.72;5059571;28;20476;-84
2022/07/16 11:14:59;;;;;;;4.80;1.98;;;;;;;35.63;23.55;95321.09;5059795;28;20485;-85
2022/07/16 11:17:28;;;;;;;10.05;2.50;;;;;;;35.54;22.17;95277.56;5059675;28;20044;-85
2022/07/16 11:19:59;;;;;;;5.32;2.30;;;;;;;35.87;22.31;95356.34;5061020;28;20032;-86
2022/07/16 11:22:26;;;;;;;7.35;2.40;;;;;;;35.50;23.20;95365.09;5059655;28;20040;-85
2022/07/16 11:24:54;;;;;;;5.15;2.00;;;;;;;34.95;23.11;95292.31;5059395;28;20035;-85
2022/07/16 11:27:31;;;;;;;9.02;2.00;;;;;;;34.07;22.68;95206.84;5060697;28;20064;-86
2022/07/16 11:29:59;;;;;;;5.97;2.03;;;;;;;35.02;22.89;95349.28;5061229;28;20139;-86
2022/07/16 11:32:26;;;;;;;5.75;2.40;;;;;;;35.28;23.26;95353.03;5059385;28;20032;-86
2022/07/16 11:34:52;;;;;;;9.20;2.15;;;;;;;33.70;22.83;95169.44;5058842;28;20062;-84
2022/07/16 11:37:18;;;;;;;4.55;2.10;;;;;;;34.55;23.57;95343.16;5059284;28;20075;-85
2022/07/16 11:39:44;;;;;;;4.00;1.80;;;;;;;34.68;22.55;95363.34;5058783;28;20040;-85